createdAt,value
2023-04-09T00:02:21.381Z,13.30
2023-04-09T00:04:48.021Z,13.40
2023-04-09T00:07:14.586Z,13.30
2023-04-09T00:09:41.014Z,13.40
2023-04-09T00:12:07.482Z,13.30
2023-04-09T00:14:33.980Z,13.30
2023-04-09T00:17:00.483Z,13.40
2023-04-09T00:19:26.991Z,13.30
2023-04-09T00:21:53.465Z,13.30
2023-04-09T00:24:19.949Z,13.30
2023-04-09T00:26:46.421Z,13.30
2023-04-09T00:29:12.908Z,13.40
2023-04-09T00:31:39.460Z,13.40
2023-04-09T00:34:05.965Z,13.30
2023-04-09T00:36:34.089Z,13.40
2023-04-09T00:39:00.578Z,13.40
2023-04-09T00:41:27.051Z,13.30
2023-04-09T00:43:53.536Z,13.30
2023-04-09T00:46:20.052Z,13.30
2023-04-09T00:48:46.562Z,13.30
2023-04-09T00:51:13.053Z,13.40
2023-04-09T00:53:39.540Z,13.40
2023-04-09T00:56:06.000Z,13.40
2023-04-09T00:58:32.520Z,13.40
2023-04-09T01:00:59.060Z,13.30
2023-04-09T01:03:25.749Z,13.40
2023-04-09T01:05:52.281Z,13.40
2023-04-09T01:08:18.775Z,13.30
2023-04-09T01:10:45.247Z,13.30
2023-04-09T01:13:11.711Z,13.30
2023-04-09T01:15:38.197Z,13.30
2023-04-09T01:18:04.676Z,13.30
2023-04-09T01:20:31.162Z,13.30
2023-04-09T01:22:57.633Z,13.30
2023-04-09T01:25:24.144Z,13.30
2023-04-09T01:27:50.615Z,13.30
2023-04-09T01:30:17.109Z,13.30
2023-04-09T01:32:43.607Z,13.30
2023-04-09T01:35:10.113Z,13.30
2023-04-09T01:37:36.607Z,13.30
2023-04-09T01:40:03.109Z,13.30
2023-04-09T01:42:29.593Z,13.30
2023-04-09T01:44:56.099Z,13.30
2023-04-09T01:47:28.402Z,13.30
2023-04-09T01:49:54.932Z,13.30
2023-04-09T01:52:21.406Z,13.30
2023-04-09T01:54:47.914Z,13.30
2023-04-09T01:57:14.412Z,13.30
2023-04-09T01:59:40.932Z,13.30
2023-04-09T02:02:07.421Z,13.30
2023-04-09T02:04:33.931Z,13.20
2023-04-09T02:07:00.395Z,13.30
2023-04-09T02:09:26.862Z,13.30
2023-04-09T02:11:53.350Z,13.30
2023-04-09T02:14:19.812Z,13.30
2023-04-09T02:16:46.294Z,13.30
2023-04-09T02:19:12.753Z,13.30
2023-04-09T02:21:39.237Z,13.30
2023-04-09T02:24:05.706Z,13.30
2023-04-09T02:26:32.186Z,13.20
2023-04-09T02:28:58.674Z,13.30
2023-04-09T02:31:25.196Z,13.30
2023-04-09T02:33:51.762Z,13.30
2023-04-09T02:36:18.230Z,13.30
2023-04-09T02:38:44.688Z,13.30
2023-04-09T02:41:12.285Z,13.30
2023-04-09T02:43:38.765Z,13.30
2023-04-09T02:46:05.289Z,13.30
2023-04-09T02:48:31.791Z,13.20
2023-04-09T02:50:58.265Z,13.20
2023-04-09T02:53:24.750Z,13.30
2023-04-09T02:55:51.268Z,13.20
2023-04-09T02:58:17.748Z,13.30
2023-04-09T03:00:44.200Z,13.20
2023-04-09T03:03:16.540Z,13.30
2023-04-09T03:05:43.179Z,13.20
2023-04-09T03:08:09.651Z,13.30
2023-04-09T03:10:36.159Z,13.30
2023-04-09T03:13:02.637Z,13.20
2023-04-09T03:15:29.115Z,13.30
2023-04-09T03:17:55.619Z,13.20
2023-04-09T03:20:22.120Z,13.20
2023-04-09T03:22:48.604Z,13.30
2023-04-09T03:25:15.074Z,13.30
2023-04-09T03:27:41.529Z,13.30
2023-04-09T03:30:07.996Z,13.20
2023-04-09T03:32:34.488Z,13.30
2023-04-09T03:35:00.969Z,13.20
2023-04-09T03:37:27.480Z,13.20
2023-04-09T03:40:04.332Z,13.30
2023-04-09T03:42:30.830Z,13.30
2023-04-09T03:44:57.318Z,13.30
2023-04-09T03:47:23.834Z,13.20
2023-04-09T03:49:50.317Z,13.20
2023-04-09T03:52:22.301Z,13.20
2023-04-09T03:54:48.757Z,13.20
2023-04-09T03:57:15.261Z,13.20
2023-04-09T03:59:41.720Z,13.20
2023-04-09T04:02:08.314Z,13.20
2023-04-09T04:04:34.964Z,13.20
2023-04-09T04:07:01.539Z,13.20
2023-04-09T04:09:28.012Z,13.20
2023-04-09T04:11:54.511Z,13.20
2023-04-09T04:14:21.000Z,13.20
2023-04-09T04:16:47.521Z,13.10
2023-04-09T04:19:13.999Z,13.30
2023-04-09T04:21:40.466Z,13.30
2023-04-09T04:24:06.940Z,13.20
2023-04-09T04:26:33.441Z,13.30
2023-04-09T04:28:59.938Z,13.40
2023-04-09T04:31:26.436Z,13.40
2023-04-09T04:33:52.932Z,13.30
2023-04-09T04:36:19.404Z,13.30
2023-04-09T04:38:45.873Z,13.50
2023-04-09T04:41:12.340Z,13.60
2023-04-09T04:43:38.855Z,13.70
2023-04-09T04:46:05.351Z,13.70
2023-04-09T04:48:32.119Z,13.70
2023-04-09T04:50:58.617Z,13.80
2023-04-09T04:53:25.113Z,13.80
2023-04-09T04:55:52.317Z,14.00
2023-04-09T04:58:18.783Z,14.00
2023-04-09T05:00:45.295Z,14.00
2023-04-09T05:03:11.876Z,13.90
2023-04-09T05:05:38.404Z,14.10
2023-04-09T05:08:04.888Z,14.20
2023-04-09T05:10:31.350Z,14.10
2023-04-09T05:12:57.836Z,14.20
2023-04-09T05:15:24.350Z,14.10
2023-04-09T05:17:50.851Z,14.20
2023-04-09T05:20:17.379Z,14.40
2023-04-09T05:22:46.533Z,14.30
2023-04-09T05:25:13.062Z,14.40
2023-04-09T05:27:39.539Z,14.30
2023-04-09T05:30:06.004Z,14.50
2023-04-09T05:32:32.503Z,14.60
2023-04-09T05:34:58.976Z,14.40
2023-04-09T05:37:25.456Z,14.50
2023-04-09T05:39:51.926Z,14.50
2023-04-09T05:42:18.387Z,14.60
2023-04-09T05:44:44.875Z,14.60
2023-04-09T05:47:11.338Z,14.70
2023-04-09T05:49:37.825Z,14.70
2023-04-09T05:52:04.316Z,14.70
2023-04-09T05:54:30.792Z,14.80
2023-04-09T05:56:57.263Z,14.90
2023-04-09T05:59:23.752Z,14.90
2023-04-09T06:01:50.261Z,14.90
2023-04-09T06:04:16.909Z,14.80
2023-04-09T06:06:43.694Z,14.80
2023-04-09T06:09:10.176Z,14.80
2023-04-09T06:11:36.630Z,15.10
2023-04-09T06:14:03.110Z,15.20
2023-04-09T06:16:29.582Z,15.20
2023-04-09T06:18:56.047Z,15.30
2023-04-09T06:21:22.518Z,15.20
2023-04-09T06:23:48.990Z,15.20
2023-04-09T06:26:15.480Z,15.30
2023-04-09T06:28:41.946Z,15.30
2023-04-09T06:31:08.505Z,15.40
2023-04-09T06:33:35.063Z,15.40
2023-04-09T06:36:01.606Z,15.50
2023-04-09T06:38:28.099Z,15.50
2023-04-09T06:40:54.579Z,15.40
2023-04-09T06:43:21.051Z,15.60
2023-04-09T06:45:47.552Z,15.60
2023-04-09T06:48:14.036Z,15.70
2023-04-09T06:50:40.510Z,15.80
2023-04-09T06:53:06.989Z,15.60
2023-04-09T06:55:33.491Z,15.70
2023-04-09T06:57:59.959Z,15.60
2023-04-09T07:00:26.480Z,15.60
2023-04-09T07:02:53.169Z,15.70
2023-04-09T07:05:19.922Z,15.80
2023-04-09T07:07:46.381Z,15.90
2023-04-09T07:10:12.862Z,15.90
2023-04-09T07:12:39.356Z,15.90
2023-04-09T07:15:05.905Z,15.90
2023-04-09T07:17:32.479Z,15.90
2023-04-09T07:19:58.995Z,15.70
2023-04-09T07:22:25.458Z,15.70
2023-04-09T07:24:51.969Z,15.90
2023-04-09T07:27:18.439Z,16.00
2023-04-09T07:29:45.075Z,16.00
2023-04-09T07:32:11.581Z,16.10
2023-04-09T07:34:38.074Z,15.90
2023-04-09T07:37:04.555Z,16.00
2023-04-09T07:39:31.086Z,15.90
2023-04-09T07:41:57.613Z,15.90
2023-04-09T07:44:24.081Z,16.00
2023-04-09T07:46:50.611Z,16.00
2023-04-09T07:49:17.089Z,16.10
2023-04-09T07:51:43.693Z,15.90
2023-04-09T07:54:10.190Z,16.00
2023-04-09T07:56:36.681Z,15.90
2023-04-09T07:59:03.140Z,16.00
2023-04-09T08:01:29.630Z,16.00
2023-04-09T08:03:56.320Z,16.10
2023-04-09T08:06:22.893Z,16.20
2023-04-09T08:08:49.412Z,16.20
2023-04-09T08:11:15.921Z,16.20
2023-04-09T08:13:42.393Z,16.20
2023-04-09T08:16:08.886Z,16.10
2023-04-09T08:18:35.375Z,16.10
2023-04-09T08:21:01.846Z,16.10
2023-04-09T08:23:28.338Z,16.10
2023-04-09T08:25:54.841Z,16.00
2023-04-09T08:28:21.309Z,16.00
2023-04-09T08:30:47.846Z,16.00
2023-04-09T08:33:14.330Z,16.00
2023-04-09T08:35:40.809Z,15.90
2023-04-09T08:38:07.305Z,15.90
2023-04-09T08:40:33.815Z,16.00
2023-04-09T08:43:00.297Z,15.90
2023-04-09T08:45:26.790Z,15.90
2023-04-09T08:47:53.362Z,15.90
2023-04-09T08:50:22.550Z,15.90
2023-04-09T08:52:49.056Z,15.90
2023-04-09T08:55:15.549Z,15.90
2023-04-09T08:57:42.022Z,15.90
2023-04-09T09:00:08.553Z,15.90
2023-04-09T09:02:35.110Z,15.90
2023-04-09T09:05:01.671Z,15.90
2023-04-09T09:07:28.204Z,15.80
2023-04-09T09:09:54.670Z,15.80
2023-04-09T09:12:21.138Z,15.80
2023-04-09T09:14:47.586Z,15.80
2023-04-09T09:17:14.176Z,15.80
2023-04-09T09:19:40.726Z,15.80
2023-04-09T09:22:07.189Z,15.80
2023-04-09T09:24:33.659Z,15.80
2023-04-09T09:27:00.176Z,15.80
2023-04-09T09:29:26.656Z,15.80
2023-04-09T09:31:53.116Z,15.80
2023-04-09T09:34:19.578Z,15.70
2023-04-09T09:36:46.058Z,15.60
2023-04-09T09:39:12.541Z,15.70
2023-04-09T09:41:39.013Z,15.70
2023-04-09T09:44:05.485Z,15.60
2023-04-09T09:46:32.014Z,15.50
2023-04-09T09:48:58.505Z,15.50
2023-04-09T09:51:25.040Z,15.60
2023-04-09T09:53:51.518Z,15.50
2023-04-09T09:56:17.998Z,15.50
2023-04-09T09:58:44.474Z,15.30
2023-04-09T10:01:10.966Z,15.30
2023-04-09T10:03:37.506Z,15.30
2023-04-09T10:06:03.965Z,15.20
2023-04-09T10:08:30.432Z,15.20
2023-04-09T10:10:56.891Z,15.20
2023-04-09T10:13:23.361Z,15.20
2023-04-09T10:15:49.886Z,15.20
2023-04-09T10:18:16.407Z,15.10
2023-04-09T10:20:42.894Z,15.10
2023-04-09T10:23:09.361Z,15.10
2023-04-09T10:25:35.816Z,15.10
2023-04-09T10:28:02.366Z,15.10
2023-04-09T10:30:28.887Z,15.10
2023-04-09T10:32:55.427Z,15.10
2023-04-09T10:35:21.924Z,15.10
2023-04-09T10:37:48.443Z,15.00
2023-04-09T10:40:14.970Z,15.10
2023-04-09T10:42:41.489Z,15.10
2023-04-09T10:45:08.002Z,15.10
2023-04-09T10:47:34.571Z,15.10
2023-04-09T10:50:01.113Z,15.00
2023-04-09T10:52:27.613Z,15.10
2023-04-09T10:54:54.085Z,15.10
2023-04-09T10:57:20.590Z,15.00
2023-04-09T10:59:47.049Z,15.00
2023-04-09T11:02:13.769Z,15.00
2023-04-09T11:04:40.358Z,15.00
2023-04-09T11:07:06.892Z,15.00
2023-04-09T11:09:33.350Z,15.00
2023-04-09T11:11:59.854Z,15.00
2023-04-09T11:14:26.318Z,15.00
2023-04-09T11:16:52.806Z,15.00
2023-04-09T11:19:19.277Z,15.00
2023-04-09T11:21:45.748Z,15.00
2023-04-09T11:24:12.225Z,15.00
2023-04-09T11:26:38.688Z,15.00
2023-04-09T11:29:05.161Z,15.00
2023-04-09T11:31:31.622Z,15.00
2023-04-09T11:33:58.088Z,15.00
2023-04-09T11:36:24.542Z,15.00
2023-04-09T11:38:51.222Z,14.90
2023-04-09T11:41:17.926Z,14.90
2023-04-09T11:43:44.402Z,14.90
2023-04-09T11:46:10.874Z,15.00
2023-04-09T11:48:37.348Z,15.10
2023-04-09T11:51:03.839Z,15.00
2023-04-09T11:53:30.316Z,15.00
2023-04-09T11:55:58.656Z,15.10
2023-04-09T11:58:25.132Z,15.10
2023-04-09T12:00:51.595Z,15.00
2023-04-09T12:03:18.238Z,15.00
2023-04-09T12:05:48.522Z,15.00
2023-04-09T12:08:16.920Z,15.10
2023-04-09T12:10:43.385Z,15.00
2023-04-09T12:13:09.865Z,15.00
2023-04-09T12:15:36.348Z,14.90
2023-04-09T12:18:02.865Z,15.00
2023-04-09T12:20:29.429Z,15.00
2023-04-09T12:22:55.895Z,15.00
2023-04-09T12:25:22.371Z,15.00
2023-04-09T12:27:48.861Z,15.00
2023-04-09T12:30:15.328Z,15.00
2023-04-09T12:32:41.856Z,15.00
2023-04-09T12:35:08.338Z,15.00
2023-04-09T12:37:34.819Z,15.10
2023-04-09T12:40:01.325Z,15.10
2023-04-09T12:42:27.810Z,15.10
2023-04-09T12:44:54.296Z,15.00
2023-04-09T12:47:20.751Z,15.00
2023-04-09T12:49:47.235Z,14.90
2023-04-09T12:52:13.719Z,15.00
2023-04-09T12:54:40.218Z,15.00
2023-04-09T12:57:06.706Z,14.90
2023-04-09T12:59:33.209Z,14.90
2023-04-09T13:01:59.818Z,14.90
2023-04-09T13:04:26.552Z,15.10
2023-04-09T13:06:53.133Z,15.00
2023-04-09T13:09:19.630Z,14.90
2023-04-09T13:11:46.104Z,15.00
2023-04-09T13:14:12.613Z,15.00
2023-04-09T13:16:39.129Z,15.00
2023-04-09T13:19:05.716Z,15.00
2023-04-09T13:21:34.731Z,14.90
2023-04-09T13:24:01.223Z,15.00
2023-04-09T13:26:27.689Z,14.90
2023-04-09T13:28:54.290Z,15.00
2023-04-09T13:31:20.901Z,14.90
2023-04-09T13:33:47.407Z,14.90
2023-04-09T13:36:13.921Z,14.90
2023-04-09T13:38:40.452Z,14.80
2023-04-09T13:41:06.936Z,14.80
2023-04-09T13:43:33.414Z,14.80
2023-04-09T13:45:59.907Z,14.80
2023-04-09T13:48:26.430Z,14.80
2023-04-09T13:50:52.898Z,14.90
2023-04-09T13:53:19.375Z,14.90
2023-04-09T13:55:45.890Z,14.80
2023-04-09T13:58:12.355Z,14.80
2023-04-09T14:00:38.836Z,14.80
2023-04-09T14:03:05.398Z,14.90
2023-04-09T14:05:31.927Z,14.80
2023-04-09T14:07:58.397Z,14.90
2023-04-09T14:10:24.887Z,14.90
2023-04-09T14:12:51.346Z,14.80
2023-04-09T14:15:17.821Z,14.90
2023-04-09T14:17:44.360Z,14.90
2023-04-09T14:20:10.849Z,14.90
2023-04-09T14:22:37.337Z,14.80
2023-04-09T14:25:03.837Z,14.90
2023-04-09T14:27:30.316Z,14.80
2023-04-09T14:29:56.815Z,14.90
2023-04-09T14:32:23.301Z,14.80
2023-04-09T14:34:49.782Z,14.80
2023-04-09T14:37:16.265Z,14.80
2023-04-09T14:39:42.748Z,14.70
2023-04-09T14:42:09.224Z,14.80
2023-04-09T14:44:35.699Z,14.90
2023-04-09T14:47:04.894Z,14.80
2023-04-09T14:49:31.391Z,14.70
2023-04-09T14:51:57.882Z,14.70
2023-04-09T14:54:24.360Z,14.70
2023-04-09T14:56:50.831Z,14.80
2023-04-09T14:59:17.305Z,14.80
2023-04-09T15:01:43.924Z,14.80
2023-04-09T15:04:10.639Z,14.80
2023-04-09T15:06:37.243Z,14.90
2023-04-09T15:09:03.704Z,14.90
2023-04-09T15:11:34.870Z,15.00
2023-04-09T15:14:01.359Z,14.90
2023-04-09T15:16:27.880Z,15.10
2023-04-09T15:18:54.779Z,15.10
2023-04-09T15:21:21.478Z,15.10
2023-04-09T15:23:47.946Z,15.20
2023-04-09T15:26:14.465Z,15.30
2023-04-09T15:28:40.930Z,15.30
2023-04-09T15:31:07.440Z,15.40
2023-04-09T15:33:33.946Z,15.40
2023-04-09T15:36:00.482Z,15.40
2023-04-09T15:38:26.960Z,15.50
2023-04-09T15:40:53.464Z,15.40
2023-04-09T15:43:19.954Z,15.40
2023-04-09T15:45:46.526Z,15.40
2023-04-09T15:48:13.093Z,15.30
2023-04-09T15:50:39.662Z,15.30
2023-04-09T15:53:06.388Z,15.30
2023-04-09T15:55:32.960Z,15.30
2023-04-09T15:57:59.465Z,15.30
2023-04-09T16:00:25.970Z,15.30
2023-04-09T16:02:52.438Z,15.40
2023-04-09T16:05:18.924Z,15.40
2023-04-09T16:07:45.399Z,15.40
2023-04-09T16:10:11.872Z,15.40
2023-04-09T16:12:38.353Z,15.50
2023-04-09T16:15:04.830Z,15.50
2023-04-09T16:17:31.475Z,15.50
2023-04-09T16:19:59.187Z,15.40
2023-04-09T16:22:25.667Z,15.40
2023-04-09T16:24:52.130Z,15.40
2023-04-09T16:27:18.591Z,15.40
2023-04-09T16:29:45.050Z,15.50
2023-04-09T16:32:11.564Z,15.50
2023-04-09T16:34:38.176Z,15.50
2023-04-09T16:37:04.652Z,15.50
2023-04-09T16:39:31.113Z,15.40
2023-04-09T16:41:57.582Z,15.40
2023-04-09T16:44:24.053Z,15.40
2023-04-09T16:46:50.606Z,15.50
2023-04-09T16:49:17.070Z,15.50
2023-04-09T16:51:43.523Z,15.50
2023-04-09T16:54:09.987Z,15.40
2023-04-09T16:56:36.473Z,15.50
2023-04-09T16:59:02.968Z,15.50
2023-04-09T17:01:29.509Z,15.50
2023-04-09T17:03:56.144Z,15.50
2023-04-09T17:06:22.708Z,15.40
2023-04-09T17:08:49.187Z,15.40
2023-04-09T17:11:15.660Z,15.40
2023-04-09T17:13:42.136Z,15.30
2023-04-09T17:16:08.613Z,15.30
2023-04-09T17:18:35.034Z,15.30
2023-04-09T17:21:01.509Z,15.40
2023-04-09T17:23:28.019Z,15.40
2023-04-09T17:25:54.495Z,15.40
2023-04-09T17:28:20.964Z,15.40
2023-04-09T17:30:47.460Z,15.40
2023-04-09T17:33:13.956Z,15.40
2023-04-09T17:35:40.467Z,15.40
2023-04-09T17:38:06.969Z,15.30
2023-04-09T17:40:33.449Z,15.30
2023-04-09T17:42:59.934Z,15.40
2023-04-09T17:45:26.386Z,15.30
2023-04-09T17:47:52.889Z,15.20
2023-04-09T17:50:19.473Z,15.10
2023-04-09T17:52:45.964Z,15.20
2023-04-09T17:55:12.471Z,15.10
2023-04-09T17:57:38.976Z,15.20
2023-04-09T18:00:05.460Z,15.10
2023-04-09T18:02:32.247Z,15.00
2023-04-09T18:04:59.084Z,14.90
2023-04-09T18:07:25.841Z,14.90
2023-04-09T18:09:52.340Z,14.90
2023-04-09T18:12:18.869Z,14.80
2023-04-09T18:14:45.353Z,14.80
2023-04-09T18:17:12.228Z,14.80
2023-04-09T18:19:39.754Z,14.80
2023-04-09T18:22:06.241Z,14.70
2023-04-09T18:24:32.698Z,14.70
2023-04-09T18:26:59.208Z,14.80
2023-04-09T18:29:25.694Z,14.70
2023-04-09T18:31:52.159Z,14.70
2023-04-09T18:34:20.000Z,14.60
2023-04-09T18:36:48.218Z,14.60
2023-04-09T18:39:14.702Z,14.60
2023-04-09T18:41:41.164Z,14.60
2023-04-09T18:44:07.634Z,14.50
2023-04-09T18:46:34.134Z,14.50
2023-04-09T18:49:00.620Z,14.50
2023-04-09T18:51:27.107Z,14.50
2023-04-09T18:53:53.586Z,14.50
2023-04-09T18:56:20.049Z,14.50
2023-04-09T18:58:46.554Z,14.40
2023-04-09T19:01:13.017Z,14.40
2023-04-09T19:03:39.773Z,14.40
2023-04-09T19:06:06.436Z,14.40
2023-04-09T19:08:32.914Z,14.40
2023-04-09T19:10:59.368Z,14.40
2023-04-09T19:13:25.853Z,14.40
2023-04-09T19:15:52.334Z,14.40
2023-04-09T19:18:18.850Z,14.40
2023-04-09T19:20:45.328Z,14.40
2023-04-09T19:23:11.802Z,14.40
2023-04-09T19:25:38.262Z,14.40
2023-04-09T19:28:04.750Z,14.40
2023-04-09T19:30:31.233Z,14.40
2023-04-09T19:32:57.759Z,14.40
2023-04-09T19:35:24.272Z,14.40
2023-04-09T19:37:50.799Z,14.40
2023-04-09T19:40:17.317Z,14.40
2023-04-09T19:42:43.797Z,14.40
2023-04-09T19:45:10.258Z,14.40
2023-04-09T19:47:36.747Z,14.30
2023-04-09T19:50:03.216Z,14.30
2023-04-09T19:52:29.676Z,14.40
2023-04-09T19:54:56.155Z,14.30
2023-04-09T19:57:22.660Z,14.30
2023-04-09T19:59:49.973Z,14.30
2023-04-09T20:02:16.629Z,14.30
2023-04-09T20:04:43.230Z,14.30
2023-04-09T20:07:09.691Z,14.30
2023-04-09T20:09:36.164Z,14.30
2023-04-09T20:12:02.638Z,14.20
2023-04-09T20:14:29.129Z,14.20
2023-04-09T20:16:55.655Z,14.20
2023-04-09T20:19:22.151Z,14.20
2023-04-09T20:21:48.620Z,14.20
2023-04-09T20:24:15.118Z,14.20
2023-04-09T20:26:41.600Z,14.20
2023-04-09T20:29:08.099Z,14.30
2023-04-09T20:31:34.625Z,14.20
2023-04-09T20:34:01.136Z,14.20
2023-04-09T20:36:27.605Z,14.20
2023-04-09T20:38:54.250Z,14.20
2023-04-09T20:41:20.980Z,14.20
2023-04-09T20:43:47.473Z,14.20
2023-04-09T20:46:13.986Z,14.20
2023-04-09T20:48:40.544Z,14.20
2023-04-09T20:51:07.005Z,14.20
2023-04-09T20:53:33.507Z,14.20
2023-04-09T20:56:05.203Z,14.10
2023-04-09T20:58:31.679Z,14.20
2023-04-09T21:00:58.167Z,14.20
2023-04-09T21:03:24.809Z,14.20
2023-04-09T21:05:51.429Z,14.10
2023-04-09T21:08:17.901Z,14.10
2023-04-09T21:10:44.405Z,14.10
2023-04-09T21:13:10.906Z,14.10
2023-04-09T21:15:37.389Z,14.10
2023-04-09T21:18:03.933Z,14.10
2023-04-09T21:20:30.443Z,14.10
2023-04-09T21:22:56.917Z,14.10
2023-04-09T21:25:23.404Z,14.10
2023-04-09T21:27:49.876Z,14.10
2023-04-09T21:30:16.354Z,14.10
2023-04-09T21:32:42.871Z,14.10
2023-04-09T21:35:09.342Z,14.10
2023-04-09T21:37:35.823Z,14.10
2023-04-09T21:40:02.329Z,14.10
2023-04-09T21:42:28.793Z,14.10
2023-04-09T21:44:55.269Z,14.10
2023-04-09T21:47:21.752Z,14.10
2023-04-09T21:49:48.228Z,14.10
2023-04-09T21:52:15.102Z,14.10
2023-04-09T21:54:41.715Z,14.10
2023-04-09T21:57:08.168Z,14.10
2023-04-09T21:59:34.867Z,14.10
2023-04-09T22:02:01.586Z,14.00
2023-04-09T22:04:28.196Z,14.00
2023-04-09T22:06:54.674Z,14.00
2023-04-09T22:09:21.144Z,14.00
2023-04-09T22:11:47.631Z,14.00
2023-04-09T22:14:14.115Z,14.00
2023-04-09T22:16:40.590Z,14.00
2023-04-09T22:19:07.076Z,14.00
2023-04-09T22:21:33.535Z,14.10
2023-04-09T22:24:00.015Z,14.00
2023-04-09T22:26:26.479Z,14.00
2023-04-09T22:28:53.217Z,14.00
2023-04-09T22:31:20.011Z,14.00
2023-04-09T22:33:46.508Z,14.00
2023-04-09T22:36:13.018Z,14.00
2023-04-09T22:38:39.560Z,14.00
2023-04-09T22:41:06.055Z,14.00
2023-04-09T22:43:32.502Z,14.00
2023-04-09T22:45:58.984Z,14.00
2023-04-09T22:48:25.456Z,14.00
2023-04-09T22:50:51.938Z,14.00
2023-04-09T22:53:18.465Z,14.00
2023-04-09T22:55:45.032Z,14.00
2023-04-09T22:58:11.500Z,14.00
2023-04-09T23:00:37.972Z,14.00
2023-04-09T23:03:04.581Z,14.00
2023-04-09T23:05:31.147Z,14.00
2023-04-09T23:07:57.610Z,14.00
2023-04-09T23:10:24.080Z,14.00
2023-04-09T23:12:50.550Z,14.00
2023-04-09T23:15:17.012Z,14.00
2023-04-09T23:17:43.522Z,14.00
2023-04-09T23:20:10.019Z,14.00
2023-04-09T23:22:36.490Z,14.00
2023-04-09T23:25:02.996Z,14.00
2023-04-09T23:27:29.465Z,14.00
2023-04-09T23:29:55.946Z,13.90
2023-04-09T23:32:22.454Z,13.90
2023-04-09T23:34:48.955Z,14.00
2023-04-09T23:37:15.450Z,14.00
2023-04-09T23:39:41.918Z,14.00
2023-04-09T23:42:08.396Z,14.00
2023-04-09T23:44:35.259Z,14.00
2023-04-09T23:47:01.785Z,13.90
2023-04-09T23:49:28.347Z,14.00
2023-04-09T23:51:54.818Z,14.00
2023-04-09T23:54:21.266Z,14.00
2023-04-09T23:56:47.735Z,13.90
2023-04-09T23:59:14.202Z,13.90
